createdAt,value
2022-12-14T00:01:54.102Z,12.93
2022-12-14T00:04:21.725Z,12.13
2022-12-14T00:06:49.299Z,13.43
2022-12-14T00:09:16.865Z,12.85
2022-12-14T00:11:44.447Z,13.07
2022-12-14T00:14:12.138Z,13.27
2022-12-14T00:16:39.788Z,12.20
2022-12-14T00:19:07.331Z,12.75
2022-12-14T00:21:35.570Z,13.25
2022-12-14T00:24:04.269Z,12.98
2022-12-14T00:26:33.170Z,11.98
2022-12-14T00:29:02.421Z,11.93
2022-12-14T00:31:31.464Z,12.30
2022-12-14T00:33:59.315Z,12.23
2022-12-14T00:36:26.982Z,12.27
2022-12-14T00:38:54.534Z,12.23
2022-12-14T00:41:22.158Z,12.20
2022-12-14T00:43:49.993Z,12.75
2022-12-14T00:46:18.212Z,12.05
2022-12-14T00:48:46.465Z,11.43
2022-12-14T00:51:15.053Z,12.50
2022-12-14T00:53:43.936Z,11.30
2022-12-14T00:56:11.544Z,11.85
2022-12-14T00:58:39.143Z,11.88
2022-12-14T01:01:08.323Z,11.45
2022-12-14T01:03:36.228Z,11.82
2022-12-14T01:06:03.995Z,12.63
2022-12-14T01:08:35.801Z,11.60
2022-12-14T01:11:08.089Z,11.63
2022-12-14T01:13:36.572Z,12.10
2022-12-14T01:16:09.316Z,11.48
2022-12-14T01:18:38.875Z,11.82
2022-12-14T01:21:11.654Z,11.65
2022-12-14T01:23:39.357Z,11.20
2022-12-14T01:26:07.107Z,11.32
2022-12-14T01:28:35.197Z,9.57
2022-12-14T01:31:14.101Z,11.15
2022-12-14T01:33:41.846Z,10.93
2022-12-14T01:36:12.147Z,10.88
2022-12-14T01:38:39.795Z,11.05
2022-12-14T01:41:08.622Z,11.60
2022-12-14T01:43:54.296Z,10.52
2022-12-14T01:46:37.950Z,10.55
2022-12-14T01:49:15.427Z,10.70
2022-12-14T01:51:52.625Z,10.93
2022-12-14T01:54:20.548Z,10.65
2022-12-14T01:56:48.389Z,11.18
2022-12-14T01:59:22.143Z,10.55
2022-12-14T02:01:49.957Z,10.38
2022-12-14T02:04:18.702Z,9.40
2022-12-14T02:06:48.952Z,10.60
2022-12-14T02:09:20.388Z,9.40
2022-12-14T02:12:18.552Z,10.07
2022-12-14T02:14:46.382Z,10.60
2022-12-14T02:17:14.789Z,10.73
2022-12-14T02:19:49.333Z,10.85
2022-12-14T02:22:29.251Z,10.63
2022-12-14T02:25:41.210Z,10.52
2022-12-14T02:28:36.027Z,9.38
2022-12-14T02:31:45.495Z,10.00
2022-12-14T02:34:35.185Z,10.93
2022-12-14T02:39:50.718Z,8.55
2022-12-14T02:42:26.528Z,9.50
2022-12-14T02:45:25.899Z,10.82
2022-12-14T02:47:55.275Z,10.52
2022-12-14T02:50:39.695Z,10.13
2022-12-14T02:53:31.484Z,9.27
2022-12-14T02:56:03.903Z,9.43
2022-12-14T02:58:36.662Z,9.93
2022-12-14T03:01:04.761Z,9.57
2022-12-14T03:03:32.347Z,9.30
2022-12-14T03:06:01.936Z,9.60
2022-12-14T03:08:32.231Z,10.43
2022-12-14T03:11:02.670Z,9.90
2022-12-14T03:13:33.176Z,9.73
2022-12-14T03:16:22.818Z,9.80
2022-12-14T03:18:59.475Z,9.70
2022-12-14T03:21:31.985Z,9.60
2022-12-14T03:24:02.517Z,10.07
2022-12-14T03:27:01.855Z,9.27
2022-12-14T03:29:35.790Z,9.77
2022-12-14T03:32:08.010Z,9.75
2022-12-14T03:34:40.377Z,9.95
2022-12-14T03:37:19.414Z,9.88
2022-12-14T03:39:47.775Z,9.73
2022-12-14T03:42:36.875Z,9.55
2022-12-14T03:47:44.768Z,9.73
2022-12-14T03:53:12.349Z,9.77
2022-12-14T03:55:45.632Z,9.38
2022-12-14T03:58:57.317Z,9.40
2022-12-14T04:02:08.667Z,9.88
2022-12-14T04:04:42.266Z,9.82
2022-12-14T04:07:12.810Z,9.18
2022-12-14T04:10:26.000Z,9.18
2022-12-14T04:13:16.732Z,9.85
2022-12-14T04:16:03.729Z,9.55
2022-12-14T04:18:59.534Z,9.45
2022-12-14T04:21:42.705Z,8.93
2022-12-14T04:24:48.220Z,9.82
2022-12-14T04:27:27.234Z,10.25
2022-12-14T04:29:57.843Z,9.25
2022-12-14T04:32:34.600Z,9.20
2022-12-14T04:35:13.784Z,9.70
2022-12-14T04:37:44.307Z,9.60
2022-12-14T04:40:27.103Z,10.02
2022-12-14T04:43:01.327Z,9.15
2022-12-14T04:45:33.716Z,9.05
2022-12-14T04:48:17.485Z,9.65
2022-12-14T04:51:10.551Z,9.98
2022-12-14T04:56:36.341Z,9.60
2022-12-14T04:59:04.378Z,11.05
2022-12-14T05:01:52.928Z,10.52
2022-12-14T05:04:57.566Z,10.38
2022-12-14T05:07:42.380Z,9.65
2022-12-14T05:10:22.423Z,9.27
2022-12-14T05:13:07.342Z,8.70
2022-12-14T05:15:41.011Z,9.60
2022-12-14T05:18:08.777Z,9.82
2022-12-14T05:20:36.321Z,9.07
2022-12-14T05:23:03.921Z,9.60
2022-12-14T05:25:31.572Z,9.35
2022-12-14T05:27:59.202Z,9.88
2022-12-14T05:30:26.842Z,9.15
2022-12-14T05:32:54.470Z,9.80
2022-12-14T05:35:22.251Z,9.38
2022-12-14T05:37:49.816Z,9.30
2022-12-14T05:40:17.782Z,9.57
2022-12-14T05:42:47.689Z,9.48
2022-12-14T05:45:18.866Z,9.60
2022-12-14T05:47:46.474Z,9.93
2022-12-14T05:50:14.006Z,9.88
2022-12-14T05:52:41.539Z,9.65
2022-12-14T05:55:09.582Z,9.40
2022-12-14T05:57:37.151Z,9.15
2022-12-14T06:00:05.443Z,9.52
2022-12-14T06:02:33.301Z,9.70
2022-12-14T06:05:00.927Z,8.88
2022-12-14T06:07:28.550Z,9.65
2022-12-14T06:09:56.462Z,9.32
2022-12-14T06:12:24.026Z,9.07
2022-12-14T06:14:51.620Z,9.95
2022-12-14T06:17:19.182Z,9.63
2022-12-14T06:19:49.882Z,9.90
2022-12-14T06:22:19.052Z,9.52
2022-12-14T06:24:46.592Z,9.70
2022-12-14T06:27:14.156Z,9.70
2022-12-14T06:29:41.723Z,10.10
2022-12-14T06:32:09.320Z,9.73
2022-12-14T06:34:40.645Z,10.30
2022-12-14T06:37:09.173Z,10.05
2022-12-14T06:39:37.026Z,9.57
2022-12-14T06:42:04.802Z,9.38
2022-12-14T06:44:32.398Z,10.13
2022-12-14T06:47:00.343Z,10.30
2022-12-14T06:49:28.228Z,10.30
2022-12-14T06:51:55.776Z,10.30
2022-12-14T06:54:23.365Z,10.60
2022-12-14T06:56:51.518Z,9.90
2022-12-14T06:59:19.306Z,9.82
2022-12-14T07:01:49.863Z,9.77
2022-12-14T07:04:21.020Z,9.68
2022-12-14T07:06:49.786Z,9.82
2022-12-14T07:09:17.385Z,10.10
2022-12-14T07:11:45.007Z,10.18
2022-12-14T07:14:18.906Z,9.45
2022-12-14T07:16:48.623Z,9.68
2022-12-14T07:19:17.442Z,10.15
2022-12-14T07:21:45.093Z,8.93
2022-12-14T07:24:12.642Z,9.27
2022-12-14T07:26:40.240Z,9.15
2022-12-14T07:29:09.265Z,8.82
2022-12-14T07:31:36.952Z,9.00
2022-12-14T07:34:04.701Z,9.38
2022-12-14T07:36:33.013Z,8.80
2022-12-14T07:39:00.629Z,9.27
2022-12-14T07:41:31.155Z,8.68
2022-12-14T07:44:00.614Z,9.35
2022-12-14T07:46:29.854Z,8.85
2022-12-14T07:48:59.146Z,8.55
2022-12-14T07:51:32.079Z,9.13
2022-12-14T07:54:00.444Z,8.95
2022-12-14T07:56:30.719Z,9.32
2022-12-14T07:58:59.181Z,8.88
2022-12-14T08:01:35.001Z,9.40
2022-12-14T08:04:08.152Z,8.75
2022-12-14T08:06:36.859Z,8.98
2022-12-14T08:09:05.658Z,8.57
2022-12-14T08:11:33.442Z,8.38
2022-12-14T08:14:04.530Z,8.40
2022-12-14T08:16:32.841Z,9.13
2022-12-14T08:19:01.013Z,8.27
2022-12-14T08:21:29.179Z,9.18
2022-12-14T08:23:57.735Z,9.10
2022-12-14T08:26:30.168Z,9.38
2022-12-14T08:29:01.102Z,8.75
2022-12-14T08:31:29.083Z,7.95
2022-12-14T08:33:58.163Z,8.85
2022-12-14T08:36:32.640Z,8.57
2022-12-14T08:39:07.093Z,8.55
2022-12-14T08:41:35.034Z,8.10
2022-12-14T08:44:04.579Z,8.57
2022-12-14T08:46:33.979Z,7.80
2022-12-14T08:49:01.778Z,7.95
2022-12-14T08:51:30.108Z,8.27
2022-12-14T08:53:58.356Z,8.18
2022-12-14T08:56:27.649Z,7.80
2022-12-14T08:58:56.083Z,8.65
2022-12-14T09:01:33.539Z,8.25
2022-12-14T09:04:08.318Z,7.63
2022-12-14T09:06:38.972Z,8.00
2022-12-14T09:09:13.567Z,8.07
2022-12-14T09:11:44.311Z,7.55
2022-12-14T09:14:12.083Z,8.25
2022-12-14T09:16:40.258Z,8.52
2022-12-14T09:19:07.981Z,8.95
2022-12-14T09:21:35.613Z,9.45
2022-12-14T09:24:03.338Z,8.60
2022-12-14T09:26:30.904Z,8.98
2022-12-14T09:28:58.482Z,9.25
2022-12-14T09:31:27.524Z,8.82
2022-12-14T09:33:55.568Z,8.88
2022-12-14T09:36:25.401Z,8.85
2022-12-14T09:38:55.362Z,9.30
2022-12-14T09:41:31.987Z,9.00
2022-12-14T09:46:48.761Z,8.43
2022-12-14T09:49:41.712Z,8.40
2022-12-14T09:52:45.373Z,8.63
2022-12-14T09:55:27.239Z,8.32
2022-12-14T09:57:59.316Z,8.85
2022-12-14T10:00:40.766Z,8.15
2022-12-14T10:03:17.363Z,8.20
2022-12-14T10:06:09.520Z,8.45
2022-12-14T10:08:54.892Z,8.80
2022-12-14T10:11:44.271Z,8.93
2022-12-14T10:14:24.323Z,8.90
2022-12-14T10:17:10.295Z,8.50
2022-12-14T10:20:12.655Z,8.13
2022-12-14T10:22:44.627Z,8.77
2022-12-14T10:25:24.996Z,8.05
2022-12-14T10:28:11.515Z,8.38
2022-12-14T10:30:42.008Z,8.65
2022-12-14T10:33:29.556Z,8.95
2022-12-14T10:35:59.923Z,8.52
2022-12-14T10:38:39.805Z,8.70
2022-12-14T10:41:33.326Z,8.73
2022-12-14T10:44:24.672Z,9.40
2022-12-14T10:47:20.007Z,8.70
2022-12-14T10:50:25.863Z,8.60
2022-12-14T10:55:32.506Z,8.02
2022-12-14T10:58:01.200Z,7.80
2022-12-14T11:00:29.020Z,8.60
2022-12-14T11:02:58.025Z,7.88
2022-12-14T11:05:37.255Z,8.77
2022-12-14T11:08:08.829Z,8.23
2022-12-14T11:10:40.750Z,8.48
2022-12-14T11:13:17.839Z,7.65
2022-12-14T11:15:48.024Z,8.35
2022-12-14T11:18:19.870Z,7.38
2022-12-14T11:20:59.269Z,8.05
2022-12-14T11:23:41.563Z,7.72
2022-12-14T11:26:37.011Z,8.32
2022-12-14T11:29:06.976Z,7.32
2022-12-14T11:31:40.497Z,7.57
2022-12-14T11:34:22.267Z,7.95
2022-12-14T11:36:50.262Z,7.72
2022-12-14T11:39:25.664Z,7.97
2022-12-14T11:41:59.144Z,7.65
2022-12-14T11:44:31.047Z,8.07
2022-12-14T11:46:58.585Z,7.53
2022-12-14T11:49:28.113Z,7.35
2022-12-14T11:52:19.790Z,7.40
2022-12-14T11:54:54.192Z,7.88
2022-12-14T12:00:47.000Z,7.68
2022-12-14T12:03:53.493Z,7.80
2022-12-14T12:06:27.953Z,8.18
2022-12-14T12:08:58.384Z,8.23
2022-12-14T12:11:32.187Z,8.07
2022-12-14T12:14:29.741Z,8.00
2022-12-14T12:16:57.873Z,7.95
2022-12-14T12:19:32.644Z,7.95
2022-12-14T12:22:01.714Z,7.90
2022-12-14T12:24:30.675Z,7.65
2022-12-14T12:27:03.458Z,8.00
2022-12-14T12:29:50.632Z,8.05
2022-12-14T12:32:35.314Z,8.65
2022-12-14T12:35:17.557Z,7.72
2022-12-14T12:38:07.982Z,8.45
2022-12-14T12:41:11.770Z,7.72
2022-12-14T12:43:53.616Z,8.00
2022-12-14T12:46:31.032Z,7.57
2022-12-14T12:49:06.358Z,7.57
2022-12-14T12:51:56.510Z,7.53
2022-12-14T12:54:29.315Z,7.72
2022-12-14T12:56:58.156Z,7.30
2022-12-14T12:59:37.597Z,7.95
2022-12-14T13:02:20.205Z,8.13
2022-12-14T13:04:52.623Z,8.20
2022-12-14T13:07:26.860Z,7.32
2022-12-14T13:10:06.082Z,9.32
2022-12-14T13:12:38.502Z,8.02
2022-12-14T13:15:16.608Z,7.80
2022-12-14T13:17:54.093Z,7.72
2022-12-14T13:20:34.641Z,7.57
2022-12-14T13:23:28.402Z,7.63
2022-12-14T13:26:55.634Z,7.10
2022-12-14T13:29:42.978Z,7.85
2022-12-14T13:32:13.584Z,7.65
2022-12-14T13:34:56.477Z,7.20
2022-12-14T13:37:26.912Z,7.25
2022-12-14T13:40:13.673Z,7.25
2022-12-14T13:42:57.093Z,7.32
2022-12-14T13:45:30.350Z,7.65
2022-12-14T13:47:59.315Z,7.32
2022-12-14T13:50:36.736Z,7.53
2022-12-14T13:53:28.021Z,7.93
2022-12-14T13:55:57.851Z,6.95
2022-12-14T13:58:33.245Z,7.05
2022-12-14T14:01:04.034Z,7.22
2022-12-14T14:03:37.680Z,7.18
2022-12-14T14:06:23.376Z,7.82
2022-12-14T14:08:52.957Z,7.30
2022-12-14T14:11:39.211Z,7.90
2022-12-14T14:14:25.492Z,7.35
2022-12-14T14:16:58.166Z,7.20
2022-12-14T14:19:27.641Z,7.20
2022-12-14T14:22:26.277Z,8.05
2022-12-14T14:25:12.516Z,8.05
2022-12-14T14:27:42.036Z,7.55
2022-12-14T14:30:29.157Z,8.50
2022-12-14T14:33:19.929Z,7.90
2022-12-14T14:35:49.540Z,8.35
2022-12-14T14:38:28.287Z,7.85
2022-12-14T14:41:15.984Z,8.10
2022-12-14T14:43:52.347Z,8.13
2022-12-14T14:46:39.362Z,7.65
2022-12-14T14:49:17.598Z,8.27
2022-12-14T14:51:45.179Z,8.05
2022-12-14T14:55:06.578Z,8.00
2022-12-14T14:57:36.115Z,7.97
2022-12-14T15:00:05.471Z,7.28
2022-12-14T15:02:39.003Z,7.70
2022-12-14T15:07:58.665Z,9.23
2022-12-14T15:10:39.059Z,10.88
2022-12-14T15:13:19.056Z,8.40
2022-12-14T15:15:49.841Z,8.88
2022-12-14T15:18:24.360Z,11.38
2022-12-14T15:21:00.902Z,10.38
2022-12-14T15:23:45.374Z,8.43
2022-12-14T15:26:21.136Z,8.35
2022-12-14T15:28:50.562Z,8.20
2022-12-14T15:31:20.104Z,9.10
2022-12-14T15:33:48.955Z,9.45
2022-12-14T15:36:18.214Z,10.27
2022-12-14T15:38:54.735Z,9.80
2022-12-14T15:41:24.559Z,10.23
2022-12-14T15:43:59.377Z,11.23
2022-12-14T15:46:31.810Z,11.85
2022-12-14T15:49:03.507Z,10.90
2022-12-14T15:51:40.715Z,10.48
2022-12-14T15:54:17.935Z,11.25
2022-12-14T15:56:50.594Z,11.70
2022-12-14T15:59:24.324Z,10.95
2022-12-14T16:02:08.306Z,10.55
2022-12-14T16:04:37.936Z,10.77
2022-12-14T16:07:18.066Z,14.23
2022-12-14T16:09:55.116Z,11.75
2022-12-14T16:12:32.058Z,10.93
2022-12-14T16:15:00.594Z,11.90
2022-12-14T16:17:32.270Z,10.18
2022-12-14T16:20:25.934Z,10.52
2022-12-14T16:23:01.355Z,9.95
2022-12-14T16:25:30.550Z,9.95
2022-12-14T16:27:58.250Z,10.07
2022-12-14T16:30:34.042Z,10.32
2022-12-14T16:33:19.621Z,8.57
2022-12-14T16:35:57.189Z,10.47
2022-12-14T16:38:24.829Z,9.88
2022-12-14T16:40:53.090Z,11.68
2022-12-14T16:43:38.832Z,11.07
2022-12-14T16:46:13.795Z,11.20
2022-12-14T16:48:50.282Z,12.25
2022-12-14T16:51:44.430Z,11.55
2022-12-14T16:54:27.307Z,10.60
2022-12-14T16:57:22.370Z,10.98
2022-12-14T17:00:01.003Z,10.90
2022-12-14T17:02:41.614Z,11.10
2022-12-14T17:05:18.312Z,11.25
2022-12-14T17:07:45.865Z,11.90
2022-12-14T17:10:19.870Z,14.70
2022-12-14T17:12:48.805Z,15.88
2022-12-14T17:15:18.320Z,14.88
2022-12-14T17:17:49.298Z,13.15
2022-12-14T17:20:29.456Z,13.30
2022-12-14T17:22:59.263Z,14.82
2022-12-14T17:25:28.412Z,12.65
2022-12-14T17:27:56.289Z,10.60
2022-12-14T17:30:25.279Z,10.50
2022-12-14T17:32:53.936Z,11.40
2022-12-14T17:35:29.614Z,11.43
2022-12-14T17:37:57.507Z,12.40
2022-12-14T17:40:25.595Z,14.30
2022-12-14T17:42:54.931Z,13.00
2022-12-14T17:45:25.127Z,12.30
2022-12-14T17:47:52.867Z,11.82
2022-12-14T17:50:20.699Z,11.60
2022-12-14T17:52:50.371Z,11.93
2022-12-14T17:55:23.219Z,11.68
2022-12-14T17:57:51.536Z,12.68
2022-12-14T18:00:43.462Z,12.68
2022-12-14T18:03:12.657Z,13.75
2022-12-14T18:05:48.070Z,15.38
2022-12-14T18:08:17.513Z,15.15
2022-12-14T18:10:46.290Z,13.85
2022-12-14T18:13:14.537Z,13.88
2022-12-14T18:15:50.103Z,14.43
2022-12-14T18:18:22.910Z,14.05
2022-12-14T18:20:53.060Z,14.20
2022-12-14T18:23:22.616Z,15.18
2022-12-14T18:26:00.278Z,14.02
2022-12-14T18:28:28.072Z,14.10
2022-12-14T18:31:02.648Z,13.20
2022-12-14T18:33:31.736Z,13.20
2022-12-14T18:35:59.860Z,13.77
2022-12-14T18:38:27.600Z,12.77
2022-12-14T18:40:58.445Z,13.05
2022-12-14T18:43:28.085Z,13.38
2022-12-14T18:45:56.968Z,12.15
2022-12-14T18:48:25.145Z,11.82
2022-12-14T18:50:54.459Z,13.13
2022-12-14T18:53:23.434Z,12.25
2022-12-14T18:55:51.623Z,12.77
2022-12-14T18:58:29.396Z,12.48
2022-12-14T19:00:59.059Z,13.15
2022-12-14T19:03:29.958Z,13.20
2022-12-14T19:06:34.830Z,14.18
2022-12-14T19:08:53.420Z,14.30
2022-12-14T19:11:29.218Z,14.55
2022-12-14T19:13:56.969Z,15.05
2022-12-14T19:16:24.832Z,15.48
2022-12-14T19:18:52.509Z,14.77
2022-12-14T19:21:20.431Z,15.80
2022-12-14T19:23:48.009Z,16.92
2022-12-14T19:26:15.656Z,15.63
2022-12-14T19:28:43.622Z,15.55
2022-12-14T19:31:12.455Z,13.82
2022-12-14T19:33:40.076Z,14.57
2022-12-14T19:36:08.415Z,13.45
2022-12-14T19:38:36.604Z,14.05
2022-12-14T19:41:11.386Z,15.52
2022-12-14T19:43:39.039Z,15.07
2022-12-14T19:46:15.570Z,15.05
2022-12-14T19:48:43.568Z,14.88
2022-12-14T19:51:12.787Z,14.60
2022-12-14T19:53:42.573Z,15.10
2022-12-14T19:56:10.999Z,14.68
2022-12-14T19:58:38.771Z,15.10
2022-12-14T20:01:14.588Z,15.10
2022-12-14T20:03:42.861Z,16.75
2022-12-14T20:06:10.736Z,16.00
2022-12-14T20:08:38.312Z,16.13
2022-12-14T20:11:10.564Z,16.90
2022-12-14T20:13:38.516Z,15.52
2022-12-14T20:16:06.568Z,13.30
2022-12-14T20:18:34.585Z,13.25
2022-12-14T20:21:07.037Z,14.82
2022-12-14T20:23:35.997Z,15.30
2022-12-14T20:26:09.200Z,14.18
2022-12-14T20:28:36.882Z,12.45
2022-12-14T20:31:08.695Z,12.52
2022-12-14T20:33:37.103Z,12.63
2022-12-14T20:36:05.446Z,12.27
2022-12-14T20:38:33.204Z,13.10
2022-12-14T20:41:09.641Z,12.95
2022-12-14T20:46:15.715Z,14.10
2022-12-14T20:48:43.444Z,13.43
2022-12-14T20:51:11.983Z,14.60
2022-12-14T20:53:39.549Z,13.70
2022-12-14T20:56:08.765Z,12.35
2022-12-14T20:58:36.390Z,12.98
2022-12-14T21:01:13.415Z,12.65
2022-12-14T21:03:41.917Z,15.07
2022-12-14T21:06:09.838Z,14.30
2022-12-14T21:08:57.374Z,14.07
2022-12-14T21:11:44.618Z,14.40
2022-12-14T21:14:12.604Z,13.02
2022-12-14T21:16:40.879Z,13.65
2022-12-14T21:19:08.668Z,14.25
2022-12-14T21:21:36.217Z,14.07
2022-12-14T21:24:03.923Z,13.30
2022-12-14T21:26:31.526Z,12.82
2022-12-14T21:28:59.110Z,12.88
2022-12-14T21:31:26.717Z,12.63
2022-12-14T21:33:55.817Z,13.10
2022-12-14T21:36:23.495Z,11.82
2022-12-14T21:38:51.074Z,14.20
2022-12-14T21:41:37.046Z,13.25
2022-12-14T21:44:04.740Z,12.55
2022-12-14T21:46:32.384Z,12.68
2022-12-14T21:49:00.362Z,14.63
2022-12-14T21:51:29.364Z,14.02
2022-12-14T21:54:00.194Z,13.55
2022-12-14T21:56:56.686Z,13.77
2022-12-14T21:59:29.923Z,13.65
2022-12-14T22:01:59.515Z,13.73
2022-12-14T22:04:28.218Z,13.27
2022-12-14T22:06:56.100Z,13.90
2022-12-14T22:09:23.903Z,14.93
2022-12-14T22:11:52.451Z,14.90
2022-12-14T22:14:22.259Z,15.98
2022-12-14T22:16:50.406Z,15.18
2022-12-14T22:19:22.925Z,14.90
2022-12-14T22:21:51.606Z,14.75
2022-12-14T22:24:20.810Z,14.75
2022-12-14T22:26:48.487Z,13.50
2022-12-14T22:29:17.263Z,13.60
2022-12-14T22:31:45.266Z,12.80
2022-12-14T22:34:21.802Z,14.05
2022-12-14T22:36:51.003Z,13.15
2022-12-14T22:39:19.098Z,13.05
2022-12-14T22:41:47.267Z,12.85
2022-12-14T22:44:14.899Z,11.45
2022-12-14T22:46:43.108Z,12.82
2022-12-14T22:49:14.147Z,18.38
2022-12-14T22:51:41.748Z,13.60
2022-12-14T22:54:11.405Z,13.80
2022-12-14T22:56:43.134Z,14.10
2022-12-14T22:59:14.711Z,14.05
2022-12-14T23:01:43.202Z,13.18
2022-12-14T23:04:17.636Z,12.38
2022-12-14T23:06:46.984Z,12.30
2022-12-14T23:09:33.102Z,13.13
2022-12-14T23:15:08.460Z,12.75
2022-12-14T23:17:54.986Z,12.73
2022-12-14T23:20:41.019Z,11.93
2022-12-14T23:23:27.682Z,13.88
2022-12-14T23:26:14.154Z,13.25
2022-12-14T23:29:00.158Z,13.32
2022-12-14T23:31:46.136Z,12.05
2022-12-14T23:34:32.216Z,13.43
2022-12-14T23:37:20.598Z,14.77
2022-12-14T23:40:07.461Z,14.27
2022-12-14T23:42:53.343Z,12.95
2022-12-14T23:45:39.455Z,13.10
2022-12-14T23:48:25.424Z,13.02
2022-12-14T23:51:11.440Z,12.30
2022-12-14T23:53:57.460Z,13.75
2022-12-14T23:56:43.534Z,13.10
2022-12-14T23:59:32.455Z,13.40
